Terminal Aerodrome Forecast
Issued by NWS Shreveport, LA

Home | Current Version | Previous Version | Text Only | Print | Product List | Glossary On
Versions: 1 2 3 4 5 6 7 8 9 10 11 12 13 14 15 16 17 18
000
FTUS44 KSHV 181700
TAFELD
TAF
KELD 181739Z 1818/1918 14004KT P6SM VCSH SCT028 BKN060
     FM181900 18005KT P6SM VCTS BKN025CB
     FM182300 18004KT P6SM SCT060 BKN100
     FM190600 VRB03KT P6SM BKN250
      TEMPO 1910/1912 4SM BR SKC=

USA.gov is the U.S. government's official web portal to all federal, state and local government web resources and services.